Time;durP1;ratioP1;P1;durP2;ratioP2;P2;SDS_P1;SDS_P2;PMS_P1;PMS_P2;Temp;Humidity;BMP_temperature;BMP_pressure;BME280_temperature;BME280_humidity;BME280_pressure;Samples;Min_cycle;Max_cycle;Signal;HPM_P1;HPM_P2
2021/06/05 00:02:20;;;;;;;4.40;2.72;;;18.10;99.90;;;;;;5093516;28;20075;-77
2021/06/05 00:04:48;;;;;;;4.60;2.67;;;18.20;99.90;;;;;;5093591;28;20048;-78
2021/06/05 00:07:14;;;;;;;5.57;3.10;;;18.20;99.90;;;;;;5093595;28;20102;-77
2021/06/05 00:09:43;;;;;;;4.53;2.78;;;18.20;99.90;;;;;;5092992;28;20493;-77
2021/06/05 00:12:15;;;;;;;6.32;3.10;;;18.20;99.90;;;;;;5093731;28;20433;-79
2021/06/05 00:14:41;;;;;;;6.40;2.80;;;18.20;99.90;;;;;;5093853;28;20052;-78
2021/06/05 00:17:08;;;;;;;4.07;2.20;;;18.20;99.90;;;;;;5093811;28;20079;-78
2021/06/05 00:19:35;;;;;;;3.90;2.08;;;18.20;99.90;;;;;;5093192;28;20048;-78
2021/06/05 00:22:03;;;;;;;4.35;2.50;;;18.20;99.90;;;;;;5093148;28;20128;-78
2021/06/05 00:24:30;;;;;;;3.63;2.15;;;18.20;99.90;;;;;;5092855;28;20080;-78
2021/06/05 00:26:57;;;;;;;4.32;2.08;;;18.20;99.90;;;;;;5093150;28;20501;-78
2021/06/05 00:29:24;;;;;;;4.68;2.30;;;18.20;99.90;;;;;;5093194;28;20131;-78
2021/06/05 00:31:51;;;;;;;3.90;2.20;;;18.20;99.90;;;;;;5094406;28;20127;-78
2021/06/05 00:34:18;;;;;;;5.55;2.05;;;18.20;99.90;;;;;;5103975;28;20075;-78
2021/06/05 00:36:44;;;;;;;3.90;2.20;;;18.30;99.90;;;;;;5103626;28;20071;-78
2021/06/05 00:39:12;;;;;;;4.70;2.45;;;18.20;99.90;;;;;;5103827;28;20083;-78
2021/06/05 00:41:40;;;;;;;3.42;2.00;;;18.30;99.90;;;;;;5100193;28;20098;-78
2021/06/05 00:44:12;;;;;;;4.53;2.30;;;18.20;99.90;;;;;;5093198;28;20477;-78
2021/06/05 00:46:39;;;;;;;4.65;2.10;;;18.20;99.90;;;;;;5092910;28;20122;-79
2021/06/05 00:49:08;;;;;;;4.40;2.30;;;18.30;99.90;;;;;;5092849;28;20148;-77
2021/06/05 00:51:38;;;;;;;3.97;2.17;;;18.20;99.90;;;;;;5092469;28;20163;-79
2021/06/05 00:54:06;;;;;;;5.30;2.42;;;18.20;99.90;;;;;;5093206;28;20123;-78
2021/06/05 00:56:34;;;;;;;5.97;2.97;;;18.20;99.90;;;;;;5092825;28;20143;-78
2021/06/05 00:59:01;;;;;;;4.35;2.47;;;18.10;99.90;;;;;;5093121;28;20131;-78
2021/06/05 01:01:31;;;;;;;4.93;2.47;;;18.10;99.90;;;;;;5092857;28;20271;-78
2021/06/05 01:03:58;;;;;;;4.68;2.40;;;18.00;99.90;;;;;;5077376;28;20133;-80
2021/06/05 01:06:29;;;;;;;4.82;2.13;;;18.00;99.90;;;;;;5093016;28;20052;-79
2021/06/05 01:09:03;;;;;;;4.20;2.00;;;18.00;99.90;;;;;;5085266;28;20646;-78
2021/06/05 01:11:41;;;;;;;3.47;1.88;;;17.90;99.90;;;;;;5092650;28;20050;-80
2021/06/05 01:14:18;;;;;;;4.22;2.00;;;17.90;99.90;;;;;;5092837;28;20051;-78
2021/06/05 01:16:49;;;;;;;4.72;1.77;;;17.90;99.90;;;;;;5092941;28;20135;-79
2021/06/05 01:19:39;;;;;;;3.22;1.70;;;17.90;99.90;;;;;;5093051;28;20131;-79
2021/06/05 01:22:21;;;;;;;3.13;1.40;;;17.80;99.90;;;;;;5093060;28;20048;-78
2021/06/05 01:25:06;;;;;;;3.00;1.42;;;17.80;99.90;;;;;;5092267;28;20506;-79
2021/06/05 01:27:40;;;;;;;3.22;1.25;;;17.80;99.90;;;;;;5092402;28;20119;-78
2021/06/05 01:30:17;;;;;;;3.00;1.25;;;17.70;99.90;;;;;;5092636;28;20552;-79
2021/06/05 01:32:44;;;;;;;3.33;1.10;;;17.70;99.90;;;;;;5083507;28;20131;-78
2021/06/05 01:35:15;;;;;;;3.45;1.20;;;17.70;99.90;;;;;;5092815;28;20075;-78
2021/06/05 01:37:43;;;;;;;2.72;1.10;;;17.70;99.90;;;;;;5092503;28;20085;-78
2021/06/05 01:40:14;;;;;;;2.85;1.20;;;17.70;99.90;;;;;;5092614;28;20074;-78
2021/06/05 01:42:45;;;;;;;2.75;1.40;;;17.70;99.90;;;;;;5092431;28;20051;-78
2021/06/05 01:45:17;;;;;;;4.13;1.30;;;17.70;99.90;;;;;;5092576;28;20144;-78
2021/06/05 01:47:44;;;;;;;2.40;1.10;;;17.70;99.90;;;;;;5095948;28;20904;-78
2021/06/05 01:50:15;;;;;;;2.67;1.00;;;17.70;99.90;;;;;;5096281;28;20144;-78
2021/06/05 01:52:43;;;;;;;3.63;1.25;;;17.70;99.90;;;;;;5096560;28;20052;-79
2021/06/05 01:55:16;;;;;;;3.75;1.35;;;17.70;99.90;;;;;;5095667;28;20140;-79
2021/06/05 01:57:50;;;;;;;3.58;1.30;;;17.60;99.90;;;;;;5095501;28;20048;-78
2021/06/05 02:00:22;;;;;;;2.75;1.10;;;17.60;99.90;;;;;;5095699;28;20123;-78
2021/06/05 02:02:49;;;;;;;3.88;1.38;;;17.60;99.90;;;;;;5095733;28;20537;-78
2021/06/05 02:05:18;;;;;;;2.72;1.25;;;17.50;99.90;;;;;;5095719;28;20131;-79
2021/06/05 02:07:45;;;;;;;2.10;1.23;;;17.50;99.90;;;;;;5095740;28;20203;-78
2021/06/05 02:10:15;;;;;;;2.47;1.10;;;17.50;99.90;;;;;;5095803;28;20054;-78
2021/06/05 02:12:43;;;;;;;2.45;1.15;;;17.50;99.90;;;;;;5095159;28;20174;-79
2021/06/05 02:15:17;;;;;;;2.55;1.20;;;17.40;99.90;;;;;;5081771;28;20122;-77
2021/06/05 02:17:45;;;;;;;2.47;1.00;;;17.40;99.90;;;;;;5095543;28;20168;-79
2021/06/05 02:20:18;;;;;;;2.70;1.10;;;17.40;99.90;;;;;;5095658;28;20158;-78
2021/06/05 02:22:46;;;;;;;2.95;1.10;;;17.40;99.90;;;;;;5095278;28;20135;-79
2021/06/05 02:25:17;;;;;;;3.25;1.20;;;17.40;99.90;;;;;;5095463;28;20044;-79
2021/06/05 02:27:45;;;;;;;2.25;1.17;;;17.40;99.90;;;;;;5095269;28;20132;-79
2021/06/05 02:30:18;;;;;;;3.30;1.00;;;17.40;99.90;;;;;;5095601;28;20135;-77
2021/06/05 02:32:45;;;;;;;2.83;1.10;;;17.40;99.90;;;;;;5095164;28;20066;-79
2021/06/05 02:35:18;;;;;;;2.65;1.08;;;17.40;99.90;;;;;;5095558;28;20135;-77
2021/06/05 02:37:47;;;;;;;1.83;0.90;;;17.40;99.90;;;;;;5095318;28;20090;-79
2021/06/05 02:40:18;;;;;;;2.58;1.08;;;17.40;99.90;;;;;;5095443;28;20090;-78
2021/06/05 02:42:46;;;;;;;3.17;1.48;;;17.40;99.90;;;;;;5094817;28;20138;-78
2021/06/05 02:45:20;;;;;;;4.85;1.33;;;17.40;99.90;;;;;;5094971;28;20528;-78
2021/06/05 02:47:57;;;;;;;4.43;1.35;;;17.40;99.90;;;;;;5094882;28;20173;-79
2021/06/05 02:50:30;;;;;;;3.13;1.02;;;17.40;99.90;;;;;;5095342;28;20477;-78
2021/06/05 02:52:57;;;;;;;2.63;1.10;;;17.40;99.90;;;;;;5079257;28;20533;-78
2021/06/05 02:55:23;;;;;;;3.00;1.38;;;17.30;99.90;;;;;;5095096;28;20090;-78
2021/06/05 02:57:52;;;;;;;2.08;1.00;;;17.30;99.90;;;;;;5097167;28;20500;-77
2021/06/05 03:00:26;;;;;;;2.67;1.13;;;17.30;99.90;;;;;;5097263;28;20084;-78
2021/06/05 03:02:53;;;;;;;3.15;1.23;;;17.30;99.90;;;;;;5094279;28;20433;-78
2021/06/05 03:05:20;;;;;;;2.65;1.10;;;17.30;99.90;;;;;;5101183;28;20056;-79
2021/06/05 03:07:47;;;;;;;2.90;1.00;;;17.30;99.90;;;;;;5104619;28;20056;-78
2021/06/05 03:10:15;;;;;;;2.67;1.13;;;17.30;99.90;;;;;;5104659;28;20068;-79
2021/06/05 03:12:42;;;;;;;1.95;0.90;;;17.30;99.90;;;;;;5104805;28;20044;-78
2021/06/05 03:15:12;;;;;;;2.30;0.90;;;17.20;99.90;;;;;;5097312;28;20132;-78
2021/06/05 03:17:39;;;;;;;2.10;0.85;;;17.30;99.90;;;;;;5096927;28;20509;-79
2021/06/05 03:20:09;;;;;;;3.00;1.00;;;17.20;99.90;;;;;;5097498;28;20124;-78
2021/06/05 03:22:36;;;;;;;2.40;1.10;;;17.30;99.90;;;;;;5102834;28;20072;-77
2021/06/05 03:25:04;;;;;;;2.97;1.10;;;17.30;99.90;;;;;;5103203;28;20047;-78
2021/06/05 03:27:30;;;;;;;2.40;1.00;;;17.30;99.90;;;;;;5099665;28;20040;-77
2021/06/05 03:29:57;;;;;;;2.53;1.00;;;17.30;99.90;;;;;;5101064;28;20072;-77
2021/06/05 03:32:25;;;;;;;2.58;1.15;;;17.30;99.90;;;;;;5104735;28;20091;-78
2021/06/05 03:34:52;;;;;;;2.85;1.10;;;17.30;99.90;;;;;;5102952;28;20094;-77
2021/06/05 03:37:18;;;;;;;2.70;1.20;;;17.30;99.90;;;;;;5102537;28;20051;-76
2021/06/05 03:39:45;;;;;;;3.45;1.20;;;17.30;99.90;;;;;;5103773;28;20043;-79
2021/06/05 03:42:12;;;;;;;2.85;1.13;;;17.30;99.90;;;;;;5098842;28;20087;-76
2021/06/05 03:44:38;;;;;;;3.42;1.25;;;17.30;99.90;;;;;;5101175;28;20059;-80
2021/06/05 03:47:05;;;;;;;2.40;1.30;;;17.30;99.90;;;;;;5105106;28;20040;-76
2021/06/05 03:49:33;;;;;;;2.67;1.40;;;17.30;99.90;;;;;;5103725;28;20090;-79
2021/06/05 03:52:01;;;;;;;2.30;1.17;;;17.30;99.90;;;;;;5103952;28;20048;-78
2021/06/05 03:54:27;;;;;;;2.67;1.00;;;17.30;99.90;;;;;;5101213;28;20047;-78
2021/06/05 03:56:54;;;;;;;2.38;1.20;;;17.30;99.90;;;;;;5086043;28;20076;-77
2021/06/05 03:59:21;;;;;;;4.07;1.40;;;17.30;99.90;;;;;;5102183;28;20040;-77
2021/06/05 04:01:48;;;;;;;3.15;1.30;;;17.30;99.90;;;;;;5102465;28;20068;-77
2021/06/05 04:04:15;;;;;;;3.40;1.30;;;17.20;99.90;;;;;;5104145;28;20086;-78
2021/06/05 04:06:43;;;;;;;3.45;1.38;;;17.20;99.90;;;;;;5104239;28;20052;-75
2021/06/05 04:09:10;;;;;;;2.58;1.20;;;17.10;99.90;;;;;;5110966;28;20051;-77
2021/06/05 04:11:36;;;;;;;2.63;1.30;;;17.10;99.90;;;;;;5112391;28;20056;-78
2021/06/05 04:14:03;;;;;;;3.05;1.20;;;17.00;99.90;;;;;;5116209;28;20055;-78
2021/06/05 04:16:31;;;;;;;3.10;1.08;;;17.00;99.90;;;;;;5116111;28;20032;-77
2021/06/05 04:18:58;;;;;;;2.72;1.00;;;17.10;99.90;;;;;;5116669;28;20031;-78
2021/06/05 04:21:26;;;;;;;2.50;1.25;;;17.10;99.90;;;;;;5111584;28;20044;-78
2021/06/05 04:23:54;;;;;;;2.33;1.20;;;17.20;99.90;;;;;;5104450;28;20047;-79
2021/06/05 04:26:22;;;;;;;3.58;1.20;;;17.20;99.90;;;;;;5104546;28;20084;-79
2021/06/05 04:28:49;;;;;;;3.17;1.27;;;17.30;99.90;;;;;;5104218;28;20068;-78
2021/06/05 04:31:19;;;;;;;3.72;1.23;;;17.30;99.90;;;;;;5104687;28;20040;-78
2021/06/05 04:33:46;;;;;;;3.47;1.30;;;17.30;99.90;;;;;;5104525;28;20048;-78
2021/06/05 04:36:15;;;;;;;3.53;1.23;;;17.30;99.90;;;;;;5104590;28;20491;-78
2021/06/05 04:38:44;;;;;;;3.13;1.30;;;17.40;99.90;;;;;;5104747;28;20079;-78
2021/06/05 04:41:15;;;;;;;2.90;1.30;;;17.40;99.90;;;;;;5104171;28;20080;-79
2021/06/05 04:43:43;;;;;;;2.88;1.27;;;17.50;99.90;;;;;;5101022;28;20543;-78
2021/06/05 04:46:12;;;;;;;3.35;1.00;;;17.50;99.90;;;;;;5093857;28;20144;-78
2021/06/05 04:48:39;;;;;;;3.05;1.33;;;17.50;99.90;;;;;;5093400;28;20048;-76
2021/06/05 04:51:06;;;;;;;3.45;1.50;;;17.60;99.90;;;;;;5092975;28;20076;-78
2021/06/05 04:53:33;;;;;;;3.22;1.50;;;17.50;99.90;;;;;;5093492;28;20159;-78
2021/06/05 04:56:00;;;;;;;2.75;1.40;;;17.60;99.90;;;;;;5093444;28;20135;-79
2021/06/05 04:58:30;;;;;;;2.95;1.10;;;17.60;99.90;;;;;;5093443;28;20072;-78
2021/06/05 05:00:57;;;;;;;3.42;1.20;;;17.60;99.90;;;;;;5098359;22;20377;-77
2021/06/05 05:03:28;;;;;;;3.28;1.30;;;17.60;99.90;;;;;;5098359;28;20126;-80
2021/06/05 05:06:00;;;;;;;2.92;1.27;;;17.60;99.90;;;;;;5112869;28;20142;-80
2021/06/05 05:08:28;;;;;;;3.85;1.73;;;17.60;99.90;;;;;;5098782;28;20097;-77
2021/06/05 05:10:56;;;;;;;3.70;1.60;;;17.60;99.90;;;;;;5112990;28;20130;-77
2021/06/05 05:13:28;;;;;;;2.65;1.25;;;17.60;99.90;;;;;;5111973;28;20127;-80
2021/06/05 05:15:56;;;;;;;3.45;1.50;;;17.70;99.90;;;;;;5117911;28;20083;-77
2021/06/05 05:18:24;;;;;;;5.32;2.65;;;17.60;99.90;;;;;;5117844;28;20079;-79
2021/06/05 05:20:52;;;;;;;7.45;3.72;;;17.70;99.90;;;;;;5151506;22;20068;-77
2021/06/05 05:23:27;;;;;;;5.97;3.20;;;17.70;99.90;;;;;;5085206;28;20040;-77
2021/06/05 05:25:55;;;;;;;4.30;2.30;;;17.70;99.90;;;;;;5085711;28;20044;-77
2021/06/05 05:28:21;;;;;;;3.50;1.60;;;17.70;99.90;;;;;;5095639;28;20123;-78
2021/06/05 05:30:53;;;;;;;3.35;1.60;;;17.70;99.90;;;;;;5092986;28;20123;-77
2021/06/05 05:33:21;;;;;;;3.42;1.60;;;17.70;99.90;;;;;;5095951;28;20122;-77
2021/06/05 05:35:48;;;;;;;3.15;1.70;;;17.70;99.90;;;;;;5095950;28;20048;-77
2021/06/05 05:38:16;;;;;;;2.85;1.45;;;17.70;99.90;;;;;;5095816;28;20040;-77
2021/06/05 05:40:44;;;;;;;4.20;1.70;;;17.60;99.90;;;;;;5094239;28;20055;-77
2021/06/05 05:43:12;;;;;;;3.47;1.85;;;17.60;99.90;;;;;;5090513;28;20158;-78
2021/06/05 05:45:39;;;;;;;3.97;1.65;;;17.60;99.90;;;;;;5091600;28;20051;-79
2021/06/05 05:48:10;;;;;;;3.45;2.00;;;17.70;99.90;;;;;;5095377;28;20134;-78
2021/06/05 05:50:40;;;;;;;3.05;1.35;;;17.70;99.90;;;;;;5095700;28;20465;-78
2021/06/05 05:53:07;;;;;;;3.22;1.45;;;17.70;99.90;;;;;;5094634;28;20445;-78
2021/06/05 05:55:34;;;;;;;3.63;1.60;;;17.70;99.90;;;;;;5095489;28;20468;-78
2021/06/05 05:58:05;;;;;;;3.28;1.70;;;17.70;99.90;;;;;;5095416;28;20052;-78
2021/06/05 06:00:35;;;;;;;3.40;1.50;;;17.70;99.90;;;;;;5095183;28;20134;-78
2021/06/05 06:03:02;;;;;;;3.67;1.60;;;17.70;99.90;;;;;;5085211;28;20564;-78
2021/06/05 06:05:30;;;;;;;3.72;1.80;;;17.70;99.90;;;;;;5095351;28;20055;-79
2021/06/05 06:07:57;;;;;;;4.60;1.60;;;17.80;99.90;;;;;;5095031;28;20075;-78
2021/06/05 06:10:25;;;;;;;5.25;1.75;;;17.70;99.90;;;;;;5095286;28;20119;-78
2021/06/05 06:12:52;;;;;;;3.17;1.88;;;17.70;99.90;;;;;;5095171;28;20140;-78
2021/06/05 06:15:23;;;;;;;3.72;1.65;;;17.70;99.90;;;;;;5095333;28;20130;-78
2021/06/05 06:17:50;;;;;;;4.20;2.17;;;17.80;99.90;;;;;;5095249;28;20040;-77
2021/06/05 06:20:24;;;;;;;3.30;1.70;;;17.80;99.90;;;;;;5094985;28;20445;-78
2021/06/05 06:22:52;;;;;;;4.63;1.60;;;17.80;99.90;;;;;;5085846;28;20068;-78
2021/06/05 06:25:21;;;;;;;3.55;1.60;;;17.90;99.90;;;;;;5094814;28;20090;-78
2021/06/05 06:27:49;;;;;;;3.33;1.60;;;18.00;99.90;;;;;;5094789;28;20044;-78
2021/06/05 06:30:18;;;;;;;3.97;1.50;;;18.00;99.90;;;;;;5094909;28;20127;-77
2021/06/05 06:32:50;;;;;;;3.13;1.60;;;18.10;99.90;;;;;;5081080;28;20046;-77
2021/06/05 06:35:18;;;;;;;3.03;1.42;;;18.10;99.90;;;;;;5086958;28;20104;-78
2021/06/05 06:37:44;;;;;;;2.88;1.55;;;18.10;99.90;;;;;;5092559;28;20127;-78
2021/06/05 06:40:14;;;;;;;2.65;1.40;;;18.20;99.90;;;;;;5088056;28;20052;-77
2021/06/05 06:42:41;;;;;;;2.75;1.50;;;18.20;99.90;;;;;;5094138;28;20143;-78
2021/06/05 06:45:10;;;;;;;3.08;1.40;;;18.30;99.90;;;;;;5092921;28;20083;-77
2021/06/05 06:47:38;;;;;;;2.85;1.20;;;18.30;99.90;;;;;;5091962;28;20492;-78
2021/06/05 06:50:06;;;;;;;3.22;1.40;;;18.40;99.90;;;;;;5094644;28;20127;-78
2021/06/05 06:52:32;;;;;;;3.35;1.42;;;18.50;99.90;;;;;;5081001;28;20072;-78
2021/06/05 06:55:00;;;;;;;4.10;1.65;;;18.60;99.90;;;;;;5092753;28;20435;-79
2021/06/05 06:57:28;;;;;;;3.45;1.50;;;18.70;99.90;;;;;;5094415;28;20127;-79
2021/06/05 06:59:55;;;;;;;3.85;1.67;;;18.80;99.90;;;;;;5092669;28;20595;-79
2021/06/05 07:02:22;;;;;;;3.85;1.73;;;18.90;99.90;;;;;;5094217;28;20055;-78
2021/06/05 07:04:50;;;;;;;3.60;1.70;;;19.00;99.90;;;;;;5088196;28;20090;-76
2021/06/05 07:07:17;;;;;;;4.10;1.33;;;19.10;99.90;;;;;;5089591;28;20059;-78
2021/06/05 07:09:44;;;;;;;2.20;1.20;;;19.20;99.90;;;;;;5094274;28;20124;-78
2021/06/05 07:12:13;;;;;;;2.40;1.10;;;19.20;99.90;;;;;;5093824;28;20043;-78
2021/06/05 07:14:41;;;;;;;2.20;1.00;;;19.30;99.90;;;;;;5094102;28;20121;-78
2021/06/05 07:17:09;;;;;;;9.18;1.42;;;19.40;99.90;;;;;;5093331;28;20091;-78
2021/06/05 07:19:36;;;;;;;2.60;1.10;;;19.50;99.90;;;;;;5088515;28;20084;-78
2021/06/05 07:22:04;;;;;;;2.75;1.20;;;19.60;99.90;;;;;;5088946;28;20127;-80
2021/06/05 07:24:31;;;;;;;2.25;1.05;;;19.70;99.90;;;;;;5086532;28;20047;-78
2021/06/05 07:26:58;;;;;;;3.95;1.30;;;19.80;99.90;;;;;;5093491;28;20075;-78
2021/06/05 07:29:24;;;;;;;2.83;1.50;;;19.90;99.90;;;;;;5092308;28;20123;-78
2021/06/05 07:31:54;;;;;;;3.17;1.20;;;19.90;99.90;;;;;;5083021;28;20182;-78
2021/06/05 07:34:26;;;;;;;2.95;1.02;;;19.90;99.90;;;;;;5093817;28;20046;-78
2021/06/05 07:36:55;;;;;;;4.55;1.17;;;19.90;99.90;;;;;;5089166;28;20086;-77
2021/06/05 07:39:28;;;;;;;2.70;1.10;;;19.90;99.90;;;;;;5078587;28;20082;-78
2021/06/05 07:41:57;;;;;;;3.42;1.38;;;19.90;99.90;;;;;;5093629;28;20048;-78
2021/06/05 07:44:24;;;;;;;2.90;1.30;;;19.90;99.90;;;;;;5092836;28;20051;-78
2021/06/05 07:46:57;;;;;;;3.67;1.20;;;19.90;99.90;;;;;;5093604;28;20087;-77
2021/06/05 07:49:24;;;;;;;2.13;1.10;;;19.90;99.90;;;;;;5093591;28;20493;-78
2021/06/05 07:51:52;;;;;;;4.07;1.20;;;19.90;99.90;;;;;;5093143;28;20063;-78
2021/06/05 07:54:19;;;;;;;2.55;0.98;;;20.00;99.90;;;;;;5089996;28;20073;-78
2021/06/05 07:56:49;;;;;;;3.42;1.20;;;19.90;99.90;;;;;;5093243;28;20051;-78
2021/06/05 07:59:19;;;;;;;2.55;0.88;;;20.00;99.80;;;;;;5093511;28;20040;-78
2021/06/05 08:01:46;;;;;;;3.08;0.90;;;20.00;99.40;;;;;;5093213;28;20131;-78
2021/06/05 08:04:14;;;;;;;3.30;0.90;;;20.00;99.10;;;;;;5093195;28;20127;-78
2021/06/05 08:06:41;;;;;;;2.10;0.90;;;20.00;99.00;;;;;;5093045;28;20081;-79
2021/06/05 08:09:08;;;;;;;2.13;0.90;;;20.00;99.10;;;;;;5092746;28;20552;-78
2021/06/05 08:11:35;;;;;;;3.97;1.20;;;19.90;99.10;;;;;;5085255;28;20124;-79
2021/06/05 08:14:02;;;;;;;2.53;1.00;;;19.90;99.00;;;;;;5092853;28;20048;-78
2021/06/05 08:16:28;;;;;;;2.78;1.00;;;19.90;99.10;;;;;;5092442;28;20040;-78
2021/06/05 08:18:55;;;;;;;3.38;1.13;;;20.00;99.20;;;;;;5093124;28;20119;-78
2021/06/05 08:21:23;;;;;;;3.72;1.20;;;20.00;99.00;;;;;;5092801;28;20108;-78
2021/06/05 08:23:51;;;;;;;2.72;1.10;;;20.00;98.60;;;;;;5093195;28;20048;-80
2021/06/05 08:26:19;;;;;;;4.60;1.20;;;20.00;98.50;;;;;;5089227;28;20040;-78
2021/06/05 08:28:45;;;;;;;3.08;1.30;;;20.00;98.60;;;;;;5091208;28;20556;-78
2021/06/05 08:31:16;;;;;;;3.05;1.33;;;19.90;98.60;;;;;;5092572;28;20131;-78
2021/06/05 08:33:42;;;;;;;2.50;1.05;;;19.90;98.40;;;;;;5092824;28;20043;-78
2021/06/05 08:36:11;;;;;;;2.85;1.10;;;19.90;98.50;;;;;;5092538;28;20123;-78
2021/06/05 08:38:40;;;;;;;2.72;1.08;;;19.90;98.40;;;;;;5092778;28;20123;-80
2021/06/05 08:41:18;;;;;;;4.70;1.02;;;19.90;98.50;;;;;;5092879;28;20067;-81
2021/06/05 08:43:48;;;;;;;2.97;1.00;;;19.90;98.40;;;;;;5092332;28;20127;-82
2021/06/05 08:46:21;;;;;;;3.17;1.10;;;19.90;98.20;;;;;;5092769;28;20124;-82
2021/06/05 08:48:48;;;;;;;3.35;1.20;;;19.90;98.20;;;;;;5093195;28;20051;-82
2021/06/05 08:51:26;;;;;;;2.65;0.90;;;20.00;98.30;;;;;;5092855;28;20075;-82
2021/06/05 08:54:01;;;;;;;4.43;1.15;;;20.00;98.30;;;;;;5092920;28;20079;-82
2021/06/05 08:56:32;;;;;;;3.33;1.02;;;20.10;98.10;;;;;;5096562;28;20427;-83
2021/06/05 08:59:01;;;;;;;2.75;1.10;;;20.10;98.10;;;;;;5096830;28;20089;-83
2021/06/05 09:01:36;;;;;;;3.88;0.95;;;20.20;97.90;;;;;;5096936;28;20131;-82
2021/06/05 09:04:08;;;;;;;2.20;0.90;;;20.20;98.00;;;;;;5097184;28;20067;-82
2021/06/05 09:06:39;;;;;;;2.38;0.90;;;20.20;98.00;;;;;;5096758;28;20506;-83
2021/06/05 09:09:10;;;;;;;2.63;1.00;;;20.30;98.00;;;;;;5096788;28;20135;-83
2021/06/05 09:11:36;;;;;;;3.70;1.20;;;20.30;98.10;;;;;;5096697;28;20040;-83
2021/06/05 09:14:03;;;;;;;2.33;0.90;;;20.40;97.70;;;;;;5096889;28;20044;-82
2021/06/05 09:16:38;;;;;;;2.42;1.08;;;20.40;97.90;;;;;;5096597;28;20083;-82
2021/06/05 09:19:17;;;;;;;2.47;1.10;;;20.50;98.00;;;;;;5096718;28;20051;-82
2021/06/05 09:21:48;;;;;;;3.30;1.35;;;20.50;97.80;;;;;;5096470;28;20536;-82
2021/06/05 09:24:27;;;;;;;2.28;1.00;;;20.60;97.50;;;;;;5096654;28;20548;-81
2021/06/05 09:27:09;;;;;;;3.67;1.00;;;20.60;97.10;;;;;;5096532;28;20098;-82
2021/06/05 09:29:53;;;;;;;3.33;1.17;;;20.60;96.90;;;;;;5096366;28;20453;-83
2021/06/05 09:32:22;;;;;;;2.83;1.00;;;20.60;96.80;;;;;;5096303;28;20493;-82
2021/06/05 09:34:52;;;;;;;2.88;1.10;;;20.70;96.70;;;;;;5096433;28;20052;-82
2021/06/05 09:37:33;;;;;;;2.67;1.00;;;20.80;96.70;;;;;;5096678;28;20166;-82
2021/06/05 09:40:17;;;;;;;4.03;1.40;;;20.80;96.90;;;;;;5096254;28;20126;-82
2021/06/05 09:42:48;;;;;;;3.47;1.10;;;20.90;96.80;;;;;;5096192;28;20079;-82
2021/06/05 09:45:32;;;;;;;3.10;0.90;;;20.90;97.00;;;;;;5096000;28;20086;-82
2021/06/05 09:48:27;;;;;;;2.73;1.10;;;20.90;97.20;;;;;;5095999;28;20055;-82
2021/06/05 09:50:57;;;;;;;2.40;1.10;;;20.90;97.40;;;;;;5095994;28;20302;-82
2021/06/05 09:53:29;;;;;;;4.05;1.20;;;21.00;97.10;;;;;;5096032;28;20143;-82
2021/06/05 09:56:01;;;;;;;2.75;1.00;;;21.00;97.30;;;;;;5095926;28;20048;-82
2021/06/05 09:58:38;;;;;;;2.35;0.90;;;21.10;97.20;;;;;;5095907;28;20059;-83
2021/06/05 10:01:22;;;;;;;2.53;1.15;;;21.10;97.40;;;;;;5095920;28;20052;-83
2021/06/05 10:03:50;;;;;;;3.58;1.20;;;21.20;97.40;;;;;;5095933;28;20070;-82
2021/06/05 10:06:35;;;;;;;2.80;1.20;;;21.30;97.10;;;;;;5094728;28;20489;-82
2021/06/05 10:09:05;;;;;;;3.05;0.95;;;21.30;96.80;;;;;;5095553;28;20054;-82
2021/06/05 10:11:38;;;;;;;2.72;1.30;;;21.30;96.60;;;;;;5095588;28;20421;-83
2021/06/05 10:14:10;;;;;;;1.88;0.90;;;21.40;96.40;;;;;;5095658;28;20144;-83
2021/06/05 10:16:43;;;;;;;3.08;1.30;;;21.40;96.30;;;;;;5095515;28;20140;-82
2021/06/05 10:19:17;;;;;;;2.08;1.00;;;21.50;96.60;;;;;;5095460;28;20501;-82
2021/06/05 10:21:47;;;;;;;3.38;1.00;;;21.50;96.60;;;;;;5095413;28;20139;-83
2021/06/05 10:24:26;;;;;;;4.10;1.30;;;21.60;96.80;;;;;;5095629;28;20079;-82
2021/06/05 10:26:56;;;;;;;3.20;1.10;;;21.70;96.60;;;;;;5095481;28;20413;-82
2021/06/05 10:29:31;;;;;;;3.13;1.33;;;21.80;96.40;;;;;;5082037;28;20480;-82
2021/06/05 10:32:00;;;;;;;2.72;1.20;;;21.80;96.30;;;;;;5075274;28;20474;-82
2021/06/05 10:34:34;;;;;;;3.10;1.40;;;21.80;96.30;;;;;;5074873;28;20052;-83
2021/06/05 10:37:00;;;;;;;3.97;1.20;;;21.90;96.00;;;;;;5075206;28;20052;-82
2021/06/05 10:39:36;;;;;;;3.20;1.33;;;22.00;95.90;;;;;;5074794;28;20136;-82
2021/06/05 10:42:13;;;;;;;4.72;1.45;;;22.00;95.90;;;;;;5074894;28;20448;-83
2021/06/05 10:44:40;;;;;;;3.22;1.40;;;22.00;95.60;;;;;;5074726;28;20174;-83
2021/06/05 10:47:13;;;;;;;3.03;1.45;;;22.00;95.70;;;;;;5079919;28;20140;-82
2021/06/05 10:49:49;;;;;;;3.45;1.40;;;22.00;95.60;;;;;;5082994;28;20045;-82
2021/06/05 10:52:26;;;;;;;2.92;1.30;;;22.00;95.10;;;;;;5082848;28;20083;-83
2021/06/05 10:54:57;;;;;;;3.13;1.35;;;22.00;95.00;;;;;;5081868;28;20533;-81
2021/06/05 10:57:39;;;;;;;2.55;1.17;;;22.00;95.20;;;;;;5079582;28;20135;-83
2021/06/05 11:00:30;;;;;;;3.20;1.10;;;22.00;95.60;;;;;;5076456;28;20550;-82
2021/06/05 11:02:58;;;;;;;2.53;1.10;;;22.00;95.50;;;;;;5078642;28;20489;-83
2021/06/05 11:05:49;;;;;;;2.45;1.10;;;22.10;95.30;;;;;;5076662;28;20137;-83
2021/06/05 11:08:53;;;;;;;3.65;1.10;;;22.30;95.20;;;;;;5075236;28;20442;-82
2021/06/05 11:11:47;;;;;;;2.42;1.23;;;22.30;94.60;;;;;;5088311;28;20084;-85
2021/06/05 11:14:51;;;;;;;2.17;1.00;;;22.30;94.20;;;;;;5095158;28;20072;-80
2021/06/05 11:17:32;;;;;;;2.90;1.10;;;22.30;94.20;;;;;;5084592;28;20101;-88
2021/06/05 11:20:39;;;;;;;4.30;1.30;;;22.30;94.50;;;;;;5093212;28;20481;-88
2021/06/05 11:23:34;;;;;;;2.53;1.02;;;22.40;94.60;;;;;;5096726;28;20044;-86
2021/06/05 11:26:40;;;;;;;4.00;1.20;;;22.30;94.30;;;;;;5096278;28;20048;-82
2021/06/05 11:29:44;;;;;;;1.95;0.90;;;22.30;93.80;;;;;;5094818;28;20382;-82
2021/06/05 11:32:48;;;;;;;2.60;1.13;;;22.20;94.10;;;;;;5074125;28;20056;-82
2021/06/05 11:35:48;;;;;;;2.60;1.05;;;22.20;94.70;;;;;;5079750;28;20489;-83
2021/06/05 11:38:48;;;;;;;2.40;0.90;;;22.30;95.00;;;;;;5081651;28;20075;-83
2021/06/05 11:41:49;;;;;;;2.15;0.90;;;22.30;95.00;;;;;;5091107;28;20466;-88
2021/06/05 11:44:30;;;;;;;2.67;1.10;;;22.40;94.40;;;;;;5094084;28;20093;-83
2021/06/05 11:47:01;;;;;;;2.80;1.00;;;22.50;94.40;;;;;;5094881;28;20378;-83
2021/06/05 11:49:54;;;;;;;2.08;0.90;;;22.50;93.80;;;;;;5096002;28;20048;-85
2021/06/05 11:52:50;;;;;;;4.50;1.37;;;22.50;93.70;;;;;;5094401;28;20135;-83
2021/06/05 11:55:40;;;;;;;2.30;0.90;;;22.50;94.10;;;;;;5094300;28;20521;-82
2021/06/05 11:58:26;;;;;;;2.50;1.00;;;22.50;94.30;;;;;;5093452;28;20048;-83
2021/06/05 12:01:22;;;;;;;2.10;0.82;;;22.60;94.40;;;;;;5089270;28;20051;-83
2021/06/05 12:04:07;;;;;;;2.72;0.80;;;22.60;93.00;;;;;;5082070;28;20131;-82
2021/06/05 12:06:39;;;;;;;8.05;3.75;;;22.60;92.50;;;;;;5090826;28;20135;-82
2021/06/05 12:09:15;;;;;;;12.73;6.43;;;22.50;92.20;;;;;;5090533;28;20564;-82
2021/06/05 12:11:47;;;;;;;5.30;2.63;;;22.50;91.60;;;;;;5090895;28;20459;-82
2021/06/05 12:14:25;;;;;;;2.58;0.73;;;22.60;91.90;;;;;;5091021;28;20044;-82
2021/06/05 12:16:56;;;;;;;3.08;0.50;;;22.70;91.70;;;;;;5090445;28;20048;-82
2021/06/05 12:19:30;;;;;;;2.10;0.60;;;22.70;90.70;;;;;;5090874;28;20131;-82
2021/06/05 12:22:17;;;;;;;1.55;0.77;;;22.70;90.50;;;;;;5090160;28;20140;-82
2021/06/05 12:24:48;;;;;;;1.73;0.50;;;22.60;90.80;;;;;;5090782;28;20122;-82
2021/06/05 12:27:26;;;;;;;0.90;0.50;;;22.50;90.90;;;;;;5091040;28;20048;-82
2021/06/05 12:30:08;;;;;;;1.05;0.50;;;22.50;91.80;;;;;;5085106;28;20127;-82
2021/06/05 12:32:36;;;;;;;1.60;0.50;;;22.40;91.20;;;;;;5090379;28;20048;-83
2021/06/05 12:35:19;;;;;;;1.30;0.70;;;22.50;91.70;;;;;;5090367;28;20048;-82
2021/06/05 12:37:51;;;;;;;1.48;0.43;;;22.50;91.70;;;;;;5090121;28;20052;-82
2021/06/05 12:40:29;;;;;;;0.80;0.40;;;22.50;91.20;;;;;;5090049;28;20598;-82
2021/06/05 12:42:55;;;;;;;1.33;0.60;;;22.50;91.00;;;;;;5090530;28;20127;-85
2021/06/05 12:45:25;;;;;;;1.00;0.50;;;22.40;90.60;;;;;;5090997;28;20060;-83
2021/06/05 12:47:57;;;;;;;0.77;0.50;;;22.40;90.30;;;;;;5091395;28;20091;-84
2021/06/05 12:50:30;;;;;;;1.15;0.60;;;22.50;90.40;;;;;;5090356;28;20142;-88
2021/06/05 12:53:01;;;;;;;1.48;0.63;;;22.50;91.00;;;;;;5099393;28;20051;-85
2021/06/05 12:55:38;;;;;;;1.65;0.73;;;22.60;91.10;;;;;;5102203;28;20457;-85
2021/06/05 12:58:08;;;;;;;1.58;0.60;;;22.50;91.70;;;;;;5096439;28;20439;-85
2021/06/05 13:00:46;;;;;;;1.20;0.57;;;22.50;91.90;;;;;;5091353;28;20099;-85
2021/06/05 13:03:37;;;;;;;1.80;0.70;;;22.50;91.70;;;;;;5090274;28;20087;-89
2021/06/05 13:06:33;;;;;;;2.15;0.85;;;22.50;91.80;;;;;;5089720;28;20072;-83
2021/06/05 13:09:24;;;;;;;1.80;0.75;;;22.30;92.20;;;;;;5089955;28;20134;-77
2021/06/05 13:11:54;;;;;;;2.22;0.80;;;22.20;92.60;;;;;;5090418;28;20105;-88
2021/06/05 13:14:40;;;;;;;2.08;0.90;;;22.20;93.30;;;;;;5090072;28;20040;-88